Weather reports worldwide

Advertisment
Capdepera,Faro, Spain (8311): temperature & dewpoint: 09.10.2019 19:00:00 - 15.10.2019 19:00:00 (CEST)Capdepera,Faro, Spain (8311): wind speed & gusts: 09.10.2019 19:00:00 - 15.10.2019 19:00:00 (CEST)Capdepera,Faro, Spain (8311): wind direction: 09.10.2019 19:00:00 - 15.10.2019 19:00:00 (CEST)Capdepera,Faro, Spain (8311): precipitation: 09.10.2019 19:00:00 - 15.10.2019 19:00:00 (CEST)
Date & Time tt [°C] td [°C] ff [km/h] ff [kn] fx [km/h] fx [kn] dd rr [mm]
15.10.2019 19:00:00 19,3 8,7 11 6 32 17 NW 0,0
15.10.2019 18:00:00 20,5 8,8 11 6 36 19 N 0,0
15.10.2019 17:00:00 21,5 10,0 23 12 40 22 N 0,0
15.10.2019 16:00:00 21,5 9,7 27 15 43 23 NNW 0,0
15.10.2019 15:00:00 21,7 9,9 31 17 43 23 N 0,0
15.10.2019 14:00:00 22,2 10,3 22 12 41 22 N -
15.10.2019 13:00:00 21,9 10,0 25 13 45 24 N 0,0
15.10.2019 12:00:00 22,3 10,8 19 10 42 23 N 0,0
15.10.2019 11:00:00 21,7 10,8 18 10 45 24 N 0,0
15.10.2019 10:00:00 20,8 11,4 23 12 50 27 N 0,0
15.10.2019 09:00:00 20,1 12,8 19 10 45 24 N 0,0
15.10.2019 08:00:00 19,5 13,7 11 6 40 22 NNW -
15.10.2019 07:00:00 20,5 16,7 15 8 32 18 N 0,0
15.10.2019 06:00:00 20,5 16,9 9 5 26 14 WSW 0,0
15.10.2019 05:00:00 20,0 16,2 5 3 19 11 W 0,0
15.10.2019 04:00:00 20,6 17,1 6 3 17 9 WSW 0,0
15.10.2019 03:00:00 22,0 19,7 7 4 26 14 WSW 0,0
15.10.2019 02:00:00 22,2 19,8 8 4 34 18 SW -
15.10.2019 01:00:00 22,1 19,5 30 16 39 21 S 0,0
15.10.2019 00:00:00 22,2 19,3 30 16 40 21 S 0,0
14.10.2019 23:00:00 22,8 20,3 24 13 28 15 SE 0,0
14.10.2019 22:00:00 22,3 20,2 16 9 29 16 E 0,8
14.10.2019 21:00:00 23,0 20,5 23 12 38 20 NNW 0,0
14.10.2019 20:00:00 22,8 20,7 31 17 42 23 N -
14.10.2019 19:00:00 23,4 22,7 2 1 19 10 WSW 0,3
14.10.2019 18:00:00 24,2 22,8 14 7 23 13 S 0,0
14.10.2019 17:00:00 24,8 23,2 21 12 39 21 S 0,0
14.10.2019 16:00:00 24,4 22,4 27 15 34 19 S 0,0
14.10.2019 15:00:00 26,4 22,7 22 12 27 14 S 0,0
14.10.2019 14:00:00 26,5 22,1 22 12 25 14 S -
14.10.2019 13:00:00 27,8 21,8 20 11 23 12 S 0,0
14.10.2019 12:00:00 27,4 22,6 14 8 17 9 S 0,0
14.10.2019 11:00:00 25,6 22,3 9 5 13 7 SSW 0,0
14.10.2019 10:00:00 23,6 22,4 7 4 15 8 SSW 0,0
14.10.2019 09:00:00 22,5 22,0 6 4 9 5 S 0,0
14.10.2019 08:00:00 21,6 21,1 0 0 4 2 N -
14.10.2019 07:00:00 21,4 20,9 2 1 5 3 W 0,0
14.10.2019 06:00:00 21,6 21,1 3 2 8 5 S 0,0
14.10.2019 05:00:00 21,6 21,1 3 2 8 5 SSW 0,0
14.10.2019 04:00:00 21,9 21,4 2 1 9 5 SSW 0,0
14.10.2019 03:00:00 21,9 21,4 2 1 10 5 SSW 0,0
14.10.2019 02:00:00 22,6 22,1 6 3 13 7 S -
14.10.2019 01:00:00 23,1 22,6 11 6 14 8 S 0,0
14.10.2019 00:00:00 23,2 22,7 12 6 15 8 SSE 0,0
13.10.2019 23:00:00 23,1 22,6 13 7 18 10 SSE 0,0
13.10.2019 22:00:00 23,2 22,5 16 9 22 12 SE 0,0
13.10.2019 21:00:00 23,2 22,7 18 10 26 14 SE 0,0
13.10.2019 20:00:00 23,1 22,3 19 10 23 12 SE -
13.10.2019 19:00:00 23,4 22,2 15 8 19 11 ESE 0,0
13.10.2019 18:00:00 23,8 21,9 15 8 22 12 SE 0,0
13.10.2019 17:00:00 23,8 21,5 19 11 24 13 SE 0,0
13.10.2019 16:00:00 24,3 21,6 21 12 26 14 SSE 0,0
13.10.2019 15:00:00 24,5 21,4 22 12 27 15 SSE 0,0
13.10.2019 14:00:00 24,5 21,0 23 12 27 15 SE -
13.10.2019 13:00:00 24,7 21,2 24 13 29 16 SE 0,0
13.10.2019 12:00:00 24,8 21,3 23 13 27 15 SE 0,0
13.10.2019 11:00:00 24,0 21,1 22 12 26 14 SE 0,0
13.10.2019 10:00:00 23,6 21,1 22 12 26 14 SE 0,0
13.10.2019 09:00:00 22,5 20,8 19 10 23 12 SSE 0,0
13.10.2019 08:00:00 22,4 20,7 14 8 19 10 SE -
13.10.2019 07:00:00 22,3 20,6 13 7 21 12 SSE 0,0
13.10.2019 06:00:00 22,4 20,7 18 10 27 14 S 0,0
13.10.2019 05:00:00 22,4 20,7 24 13 28 15 S 0,0
13.10.2019 04:00:00 22,4 20,7 23 12 29 16 S 0,0
13.10.2019 03:00:00 22,3 20,6 27 14 30 16 S 0,0
13.10.2019 02:00:00 22,5 20,8 26 14 30 16 S -
13.10.2019 01:00:00 22,4 20,5 26 14 29 16 S 0,0
13.10.2019 00:00:00 22,4 20,5 25 14 29 16 SSE 0,0
12.10.2019 23:00:00 22,4 20,3 20 11 24 13 S 0,0
12.10.2019 22:00:00 22,4 20,1 21 11 26 14 S 0,0
12.10.2019 21:00:00 22,5 20,3 21 12 26 14 SSE 0,0
12.10.2019 20:00:00 22,6 20,1 21 11 27 14 S -
12.10.2019 19:00:00 22,9 20,1 21 11 26 14 S 0,0
12.10.2019 18:00:00 23,0 19,6 22 12 27 14 SSE 0,0
12.10.2019 17:00:00 23,6 19,6 24 13 28 15 SSE 0,0
12.10.2019 16:00:00 24,6 19,8 23 12 29 16 SSE 0,0
12.10.2019 15:00:00 24,8 19,4 24 13 29 16 SSE 0,0
12.10.2019 14:00:00 24,9 19,5 24 13 29 16 SSE -
12.10.2019 13:00:00 25,0 19,6 24 13 28 15 SE 0,0
12.10.2019 12:00:00 24,4 19,1 22 12 26 14 SSE 0,0
12.10.2019 11:00:00 24,4 19,5 23 12 29 16 SSE 0,0
12.10.2019 10:00:00 22,6 19,2 23 13 29 16 SSE 0,0
12.10.2019 09:00:00 22,3 18,9 21 12 26 14 SSE 0,0
12.10.2019 08:00:00 21,5 18,3 21 11 29 15 SSE -
12.10.2019 07:00:00 21,5 18,1 23 12 29 16 SSE 0,0
12.10.2019 06:00:00 21,7 18,1 23 12 31 17 SSE 0,0
12.10.2019 05:00:00 21,8 18,2 25 14 34 18 SSE 0,0
12.10.2019 04:00:00 21,8 18,4 29 16 34 19 SE 0,0
12.10.2019 03:00:00 22,1 18,7 29 15 32 17 SSE 0,0
12.10.2019 02:00:00 22,2 18,8 24 13 31 17 SSE -
12.10.2019 01:00:00 22,0 18,8 25 14 32 17 S 0,0
12.10.2019 00:00:00 22,1 18,7 26 14 30 16 S 0,0
11.10.2019 23:00:00 22,1 18,9 25 13 30 16 S 0,0
11.10.2019 22:00:00 22,1 18,9 23 12 28 15 S 0,0
11.10.2019 21:00:00 22,2 18,8 24 13 29 16 S 0,0
11.10.2019 20:00:00 22,4 19,0 23 13 27 15 S -
11.10.2019 19:00:00 22,7 18,5 21 12 28 15 S 0,0
11.10.2019 18:00:00 23,7 18,3 20 11 25 13 S 0,0
11.10.2019 17:00:00 24,9 18,6 19 11 26 14 S 0,0
11.10.2019 16:00:00 26,0 18,7 19 10 24 13 S 0,0
11.10.2019 15:00:00 26,6 18,7 19 11 24 13 S 0,0
11.10.2019 14:00:00 26,7 19,1 19 11 26 14 S -
11.10.2019 13:00:00 26,7 19,1 20 11 26 14 S 0,0
11.10.2019 12:00:00 25,9 19,1 16 9 21 11 S 0,0
11.10.2019 11:00:00 23,9 19,2 11 6 20 11 SSW 0,0
11.10.2019 10:00:00 22,7 18,7 11 6 20 11 SSW 0,0
11.10.2019 09:00:00 20,8 18,0 6 3 11 6 SW 0,0
11.10.2019 08:00:00 20,1 17,3 5 3 10 5 SW -
11.10.2019 07:00:00 20,2 17,2 6 3 11 6 SSW 0,0
11.10.2019 06:00:00 20,0 16,8 3 2 14 7 SSW 0,0
11.10.2019 05:00:00 20,0 16,6 6 3 9 5 SSW 0,0
11.10.2019 04:00:00 20,1 16,6 6 3 8 4 S 0,0
11.10.2019 03:00:00 20,1 16,1 6 3 9 5 SSW 0,0
11.10.2019 02:00:00 19,9 16,0 4 2 9 5 SSW -
11.10.2019 01:00:00 20,0 15,9 2 1 12 6 WSW 0,0
11.10.2019 00:00:00 20,6 16,0 8 4 15 8 SSW 0,0
10.10.2019 23:00:00 20,6 15,6 7 4 16 9 S 0,0
10.10.2019 22:00:00 20,8 15,5 13 7 18 10 S 0,0
10.10.2019 21:00:00 21,1 15,6 12 6 18 10 SE 0,0
10.10.2019 20:00:00 21,0 15,3 14 8 21 11 SE -
10.10.2019 19:00:00 21,5 15,3 14 8 20 11 ESE 0,0
10.10.2019 18:00:00 22,0 15,3 13 7 21 12 ESE 0,0
10.10.2019 17:00:00 23,1 15,4 8 5 16 9 SE 0,0
10.10.2019 16:00:00 23,0 15,1 10 5 16 9 E 0,0
10.10.2019 15:00:00 22,6 14,7 8 5 20 11 E 0,0
10.10.2019 14:00:00 - - - - - - - -
10.10.2019 13:00:00 22,6 14,4 14 8 26 14 ENE 0,0
10.10.2019 12:00:00 23,3 16,3 17 9 24 13 ENE 0,0
10.10.2019 11:00:00 22,2 16,9 17 9 23 13 ENE 0,0
10.10.2019 10:00:00 21,6 17,2 18 10 27 14 NE 0,0
10.10.2019 09:00:00 21,1 16,7 19 10 30 16 ENE 0,0
10.10.2019 08:00:00 20,9 17,1 21 11 27 15 ENE -
10.10.2019 07:00:00 20,9 17,1 21 12 28 15 NE 0,0
10.10.2019 06:00:00 21,0 18,0 21 11 25 13 NE 0,0
10.10.2019 05:00:00 21,1 18,3 19 10 26 14 ENE 0,0
10.10.2019 04:00:00 21,1 18,5 21 11 32 18 NE 0,0
10.10.2019 03:00:00 21,2 18,2 17 9 24 13 NE 0,0
10.10.2019 02:00:00 21,7 16,9 15 8 21 11 NE -
10.10.2019 01:00:00 21,7 16,4 11 6 16 9 ENE 0,0
10.10.2019 00:00:00 21,8 16,7 10 6 16 9 E 0,0
09.10.2019 23:00:00 21,9 16,6 8 4 16 8 ENE 0,0
09.10.2019 22:00:00 21,9 17,1 11 6 16 8 ENE 0,0
09.10.2019 21:00:00 22,2 17,3 7 4 11 6 E 0,0
09.10.2019 20:00:00 22,6 17,3 4 2 9 5 SSE -
09.10.2019 19:00:00 22,9 17,4 7 4 17 9 SSE 0,0

tt = temperature
td = dewpoint
ff = wind speed
fx = gusts
dd = wind direction
rr = precipitation

Next stations